Waverly, Minnesota
Current Conditions -  °F | °C
As of 12:35 AM on Thursday 29 Jan 2015 (Local Time) from KCFE Reporting Station
Haze Haze  
Wind Chill: 24°   Ceiling: 500
Heat Index: 31°   Visibility: 3mi
Dew Point: 29°   Wind: 7mph
Humidity: 94%   Direction: 280°W
Pressure: 29.9"   Gusts: NA
Location:  45.07°N, 93.97°W
Report Text: KCFE 290635Z AUTO 28006KT 3SM BR OVC005 M01/M02 A2990 RMK AO2 T10081016
Loading
Personal Weather Stations






























Interactive Weather Map New forecast layout! Learn more

10-Day Weather Forecast

Advertisements
Track Severe Weather on mobile